createdAt,value
2017-12-01T00:00:19.285Z,78.73
2017-12-01T00:02:46.876Z,100.67
2017-12-01T00:05:14.405Z,75.83
2017-12-01T00:07:41.937Z,79.53
2017-12-01T00:10:09.521Z,74.97
2017-12-01T00:12:37.058Z,67.40
2017-12-01T00:15:04.588Z,83.70
2017-12-01T00:17:32.141Z,95.80
2017-12-01T00:19:59.686Z,123.50
2017-12-01T00:22:27.232Z,91.03
2017-12-01T00:24:54.816Z,79.93
2017-12-01T00:27:22.383Z,80.20
2017-12-01T00:29:49.920Z,80.50
2017-12-01T00:32:17.454Z,82.57
2017-12-01T00:34:45.046Z,76.33
2017-12-01T00:37:12.578Z,90.50
2017-12-01T00:39:40.118Z,80.20
2017-12-01T00:42:07.692Z,87.17
2017-12-01T00:44:35.226Z,68.80
2017-12-01T00:47:02.752Z,82.90
2017-12-01T00:49:30.349Z,87.97
2017-12-01T00:51:57.882Z,92.60
2017-12-01T00:54:25.413Z,89.20
2017-12-01T00:56:53.069Z,87.67
2017-12-01T00:59:20.615Z,92.70
2017-12-01T01:01:48.141Z,86.50
2017-12-01T01:04:15.688Z,82.60
2017-12-01T01:06:43.234Z,82.93
2017-12-01T01:09:10.760Z,84.27
2017-12-01T01:11:38.354Z,74.57
2017-12-01T01:14:05.884Z,68.10
2017-12-01T01:16:33.407Z,74.83
2017-12-01T01:19:00.980Z,77.53
2017-12-01T01:21:28.525Z,75.60
2017-12-01T01:23:56.069Z,78.87
2017-12-01T01:26:23.631Z,82.73
2017-12-01T01:28:51.174Z,78.37
2017-12-01T01:31:18.736Z,76.97
2017-12-01T01:33:46.265Z,91.27
2017-12-01T01:36:13.808Z,82.40
2017-12-01T01:38:41.327Z,83.73
2017-12-01T01:41:09.005Z,74.40
2017-12-01T01:43:36.520Z,85.77
2017-12-01T01:46:04.064Z,98.17
2017-12-01T01:48:31.663Z,101.60
2017-12-01T01:50:59.199Z,98.03
2017-12-01T01:53:26.750Z,106.73
2017-12-01T01:55:54.314Z,93.30
2017-12-01T01:58:21.884Z,98.90
2017-12-01T02:00:49.423Z,89.73
2017-12-01T02:03:16.946Z,90.10
2017-12-01T02:05:44.544Z,94.97
2017-12-01T02:08:12.072Z,82.00
2017-12-01T02:10:39.583Z,88.50
2017-12-01T02:13:07.186Z,91.00
2017-12-01T02:15:34.726Z,85.50
2017-12-01T02:18:02.288Z,96.70
2017-12-01T02:20:29.893Z,80.67
2017-12-01T02:22:57.429Z,77.63
2017-12-01T02:25:24.951Z,89.73
2017-12-01T02:27:52.523Z,87.23
2017-12-01T02:30:20.064Z,74.93
2017-12-01T02:32:47.649Z,78.50
2017-12-01T02:35:15.187Z,77.57
2017-12-01T02:37:42.863Z,81.83
2017-12-01T02:40:10.416Z,92.13
2017-12-01T02:42:37.968Z,84.13
2017-12-01T02:45:05.590Z,81.47
2017-12-01T02:47:33.150Z,84.23
2017-12-01T02:50:00.685Z,80.57
2017-12-01T02:52:28.257Z,96.80
2017-12-01T02:54:55.801Z,91.03
2017-12-01T02:57:23.397Z,85.77
2017-12-01T02:59:50.929Z,99.93
2017-12-01T03:02:18.464Z,95.37
2017-12-01T03:04:46.048Z,97.00
2017-12-01T03:07:13.571Z,91.70
2017-12-01T03:09:41.132Z,97.57
2017-12-01T03:12:08.729Z,99.00
2017-12-01T03:14:36.264Z,92.43
2017-12-01T03:17:03.803Z,94.57
2017-12-01T03:19:31.365Z,110.30
2017-12-01T03:21:58.913Z,101.90
2017-12-01T03:24:26.516Z,91.60
2017-12-01T03:26:54.065Z,86.27
2017-12-01T03:29:21.609Z,86.13
2017-12-01T03:31:49.208Z,83.70
2017-12-01T03:34:16.742Z,92.27
2017-12-01T03:36:44.288Z,100.57
2017-12-01T03:39:11.885Z,108.60
2017-12-01T03:41:39.433Z,78.57
2017-12-01T03:44:06.997Z,107.50
2017-12-01T03:46:34.579Z,119.57
2017-12-01T03:49:02.202Z,114.63
2017-12-01T03:51:29.748Z,106.10
2017-12-01T03:53:57.275Z,112.17
2017-12-01T03:56:24.829Z,120.43
2017-12-01T03:58:52.992Z,125.90
2017-12-01T04:01:20.577Z,127.63
2017-12-01T04:03:48.123Z,117.90
2017-12-01T04:06:15.815Z,123.00
2017-12-01T04:08:43.369Z,119.57
2017-12-01T04:11:10.964Z,103.70
2017-12-01T04:13:38.620Z,90.50
2017-12-01T04:16:06.168Z,119.93
2017-12-01T04:18:33.712Z,116.17
2017-12-01T04:21:01.313Z,97.40
2017-12-01T04:23:28.878Z,126.37
2017-12-01T04:25:56.420Z,118.97
2017-12-01T04:28:23.985Z,129.47
2017-12-01T04:30:51.572Z,132.73
2017-12-01T04:33:19.133Z,138.77
2017-12-01T04:35:46.701Z,135.63
2017-12-01T04:38:14.294Z,130.53
2017-12-01T04:40:41.859Z,134.77
2017-12-01T04:43:09.452Z,137.97
2017-12-01T04:45:36.991Z,115.03
2017-12-01T04:48:04.541Z,133.50
2017-12-01T04:50:32.287Z,133.77
2017-12-01T04:52:59.828Z,147.03
2017-12-01T04:55:27.375Z,112.30
2017-12-01T04:57:54.972Z,138.47
2017-12-01T05:00:22.508Z,157.00
2017-12-01T05:02:50.069Z,146.90
2017-12-01T05:05:17.793Z,132.60
2017-12-01T05:07:45.331Z,156.33
2017-12-01T05:10:12.881Z,145.80
2017-12-01T05:12:40.557Z,141.57
2017-12-01T05:15:08.159Z,165.27
2017-12-01T05:17:35.676Z,156.80
2017-12-01T05:20:03.422Z,147.10
2017-12-01T05:22:30.958Z,96.97
2017-12-01T05:24:58.501Z,157.93
2017-12-01T05:27:26.085Z,152.30
2017-12-01T05:29:53.632Z,133.77
2017-12-01T05:32:21.185Z,169.33
2017-12-01T05:34:48.760Z,130.90
2017-12-01T05:37:16.348Z,132.27
2017-12-01T05:39:43.902Z,156.23
2017-12-01T05:42:11.453Z,134.30
2017-12-01T05:44:39.026Z,130.77
2017-12-01T05:47:06.551Z,161.23
2017-12-01T05:49:34.109Z,140.30
2017-12-01T05:52:01.670Z,131.37
2017-12-01T05:54:29.257Z,124.13
2017-12-01T05:56:56.848Z,123.47
2017-12-01T05:59:24.426Z,105.60
2017-12-01T06:01:51.957Z,110.17
2017-12-01T06:04:19.628Z,136.13
2017-12-01T06:06:47.183Z,141.37
2017-12-01T06:09:14.712Z,90.43
2017-12-01T06:11:42.327Z,112.90
2017-12-01T06:14:09.919Z,100.20
2017-12-01T06:16:37.453Z,125.40
2017-12-01T06:19:05.005Z,108.53
2017-12-01T06:21:32.565Z,130.87
2017-12-01T06:24:00.105Z,140.33
2017-12-01T06:26:27.704Z,132.77
2017-12-01T06:28:55.253Z,99.27
2017-12-01T06:31:22.997Z,105.87
2017-12-01T06:33:50.541Z,101.60
2017-12-01T06:36:18.149Z,106.20
2017-12-01T06:38:45.712Z,129.47
2017-12-01T06:41:13.280Z,107.37
2017-12-01T06:43:40.862Z,103.50
2017-12-01T06:46:08.400Z,108.33
2017-12-01T06:48:35.997Z,115.43
2017-12-01T06:51:03.544Z,104.80
2017-12-01T06:53:31.065Z,102.50
2017-12-01T06:55:58.656Z,96.80
2017-12-01T06:58:26.223Z,103.33
2017-12-01T07:00:53.912Z,111.60
2017-12-01T07:03:21.480Z,106.80
2017-12-01T07:05:49.019Z,96.80
2017-12-01T07:08:16.585Z,100.53
2017-12-01T07:10:44.103Z,110.43
2017-12-01T07:13:11.782Z,87.50
2017-12-01T07:15:39.301Z,97.97
2017-12-01T07:18:06.821Z,94.50
2017-12-01T07:20:34.492Z,71.90
2017-12-01T07:23:02.017Z,64.77
2017-12-01T07:25:29.548Z,111.80
2017-12-01T07:27:57.317Z,94.47
2017-12-01T07:30:24.832Z,79.97
2017-12-01T07:32:52.345Z,93.73
2017-12-01T07:35:20.000Z,101.67
2017-12-01T07:37:47.688Z,108.00
2017-12-01T07:40:15.225Z,105.63
2017-12-01T07:42:42.816Z,100.20
2017-12-01T07:48:14.456Z,111.03
2017-12-01T07:50:42.018Z,105.27
2017-12-01T07:53:09.554Z,79.90
2017-12-01T07:55:37.132Z,72.40
2017-12-01T07:58:04.673Z,70.83
2017-12-01T08:00:32.199Z,51.60
2017-12-01T08:02:59.866Z,76.33
2017-12-01T08:05:27.398Z,75.80
2017-12-01T08:07:54.934Z,82.07
2017-12-01T08:10:22.505Z,93.93
2017-12-01T08:12:50.047Z,83.53
2017-12-01T08:15:17.624Z,89.73
2017-12-01T08:17:45.166Z,84.67
2017-12-01T08:20:19.832Z,89.13
2017-12-01T08:22:53.189Z,97.20
2017-12-01T08:25:26.455Z,77.50
2017-12-01T08:27:53.984Z,95.60
2017-12-01T08:30:21.560Z,86.33
2017-12-01T08:32:49.105Z,87.33
2017-12-01T08:35:16.612Z,83.90
2017-12-01T08:37:44.188Z,91.47
2017-12-01T08:40:11.925Z,94.57
2017-12-01T08:42:39.449Z,84.73
2017-12-01T08:45:06.997Z,104.13
2017-12-01T08:47:34.735Z,98.90
2017-12-01T08:50:02.252Z,68.27
2017-12-01T08:52:29.787Z,86.93
2017-12-01T08:54:57.333Z,124.77
2017-12-01T08:57:24.856Z,103.70
2017-12-01T08:59:52.420Z,89.67
2017-12-01T09:02:19.968Z,96.47
2017-12-01T09:04:47.649Z,97.53
2017-12-01T09:07:15.165Z,102.40
2017-12-01T09:09:42.675Z,104.53
2017-12-01T09:12:10.253Z,85.50
2017-12-01T09:14:37.814Z,94.93
2017-12-01T09:17:05.358Z,102.17
2017-12-01T09:19:32.922Z,97.00
2017-12-01T09:22:00.476Z,93.57
2017-12-01T09:24:28.052Z,89.23
2017-12-01T09:26:55.627Z,102.10
2017-12-01T09:29:23.153Z,96.30
2017-12-01T09:31:50.727Z,76.73
2017-12-01T09:34:18.248Z,75.73
2017-12-01T09:36:46.000Z,79.87
2017-12-01T09:39:13.521Z,91.50
2017-12-01T09:41:41.049Z,70.00
2017-12-01T09:44:08.764Z,71.23
2017-12-01T09:46:36.303Z,70.43
2017-12-01T09:49:03.827Z,74.10
2017-12-01T09:51:31.355Z,56.77
2017-12-01T09:53:58.878Z,73.00
2017-12-01T09:56:26.585Z,62.20
2017-12-01T09:58:54.110Z,67.73
2017-12-01T10:01:21.621Z,69.83
2017-12-01T10:03:49.186Z,61.30
2017-12-01T10:06:16.763Z,72.27
2017-12-01T10:08:44.337Z,54.50
2017-12-01T10:11:11.862Z,63.47
2017-12-01T10:13:39.393Z,75.63
2017-12-01T10:16:06.940Z,59.40
2017-12-01T10:18:34.512Z,69.20
2017-12-01T10:21:02.039Z,62.23
2017-12-01T10:23:29.551Z,59.77
2017-12-01T10:25:57.091Z,64.83
2017-12-01T10:28:24.613Z,65.97
2017-12-01T10:30:52.147Z,71.80
2017-12-01T10:33:19.860Z,72.07
2017-12-01T10:35:47.393Z,74.10
2017-12-01T10:38:15.000Z,53.87
2017-12-01T10:40:42.592Z,63.97
2017-12-01T10:43:10.123Z,58.03
2017-12-01T10:45:37.645Z,71.43
2017-12-01T10:48:05.300Z,67.30
2017-12-01T10:50:32.823Z,81.40
2017-12-01T10:53:00.344Z,67.67
2017-12-01T10:55:27.897Z,73.90
2017-12-01T10:57:55.415Z,72.13
2017-12-01T11:00:22.968Z,56.23
2017-12-01T11:02:50.480Z,60.73
2017-12-01T11:05:18.047Z,60.20
2017-12-01T11:07:45.573Z,66.43
2017-12-01T11:10:13.084Z,76.93
2017-12-01T11:12:40.625Z,68.70
2017-12-01T11:15:08.150Z,63.83
2017-12-01T11:17:35.730Z,59.63
2017-12-01T11:20:03.252Z,50.07
2017-12-01T11:22:30.768Z,56.10
2017-12-01T11:24:58.342Z,59.13
2017-12-01T11:27:25.859Z,58.40
2017-12-01T11:29:53.369Z,48.83
2017-12-01T11:32:20.917Z,53.67
2017-12-01T11:34:48.437Z,54.73
2017-12-01T11:37:15.972Z,47.93
2017-12-01T11:39:43.504Z,53.33
2017-12-01T11:42:11.188Z,40.13
2017-12-01T11:44:38.707Z,52.97
2017-12-01T11:47:06.226Z,68.03
2017-12-01T11:49:33.899Z,59.07
2017-12-01T11:52:01.426Z,55.77
2017-12-01T11:54:28.956Z,71.50
2017-12-01T11:56:56.494Z,52.83
2017-12-01T11:59:24.029Z,51.23
2017-12-01T12:01:51.598Z,54.37
2017-12-01T12:04:19.122Z,47.93
2017-12-01T12:06:46.692Z,50.20
2017-12-01T12:09:14.223Z,46.87
2017-12-01T12:11:41.828Z,48.60
2017-12-01T12:14:09.359Z,46.57
2017-12-01T12:16:36.896Z,52.30
2017-12-01T12:19:04.477Z,41.53
2017-12-01T12:21:32.013Z,42.87
2017-12-01T12:23:59.539Z,49.77
2017-12-01T12:26:27.125Z,49.13
2017-12-01T12:28:54.678Z,46.60
2017-12-01T12:31:22.207Z,44.00
2017-12-01T12:33:49.781Z,43.23
2017-12-01T12:36:17.316Z,47.90
2017-12-01T12:38:44.845Z,47.77
2017-12-01T12:41:12.539Z,36.40
2017-12-01T12:43:40.067Z,41.93
2017-12-01T12:46:07.609Z,39.40
2017-12-01T12:48:35.178Z,50.47
2017-12-01T12:51:02.723Z,43.40
2017-12-01T12:53:30.296Z,45.37
2017-12-01T12:55:57.839Z,47.10
2017-12-01T12:58:25.417Z,44.60
2017-12-01T13:00:53.008Z,47.23
2017-12-01T13:03:20.533Z,48.00
2017-12-01T13:05:48.087Z,47.60
2017-12-01T13:08:15.634Z,47.03
2017-12-01T13:10:43.238Z,45.30
2017-12-01T13:13:10.799Z,51.60
2017-12-01T13:15:38.366Z,59.00
2017-12-01T13:18:05.936Z,45.17
2017-12-01T13:20:33.459Z,47.13
2017-12-01T13:23:01.002Z,43.40
2017-12-01T13:25:28.691Z,39.03
2017-12-01T13:27:56.240Z,39.00
2017-12-01T13:30:23.789Z,46.57
2017-12-01T13:32:51.360Z,40.63
2017-12-01T13:35:18.985Z,51.10
2017-12-01T13:37:46.533Z,48.00
2017-12-01T13:40:14.077Z,54.93
2017-12-01T13:42:41.604Z,47.83
2017-12-01T13:45:09.185Z,38.73
2017-12-01T13:47:36.724Z,40.27
2017-12-01T13:50:04.271Z,45.47
2017-12-01T13:52:31.831Z,48.20
2017-12-01T13:54:59.525Z,48.20
2017-12-01T13:57:27.044Z,46.13
2017-12-01T13:59:54.580Z,40.57
2017-12-01T14:02:22.144Z,44.43
2017-12-01T14:04:49.701Z,45.63
2017-12-01T14:07:17.272Z,48.53
2017-12-01T14:09:44.798Z,45.93
2017-12-01T14:12:12.355Z,35.00
2017-12-01T14:14:39.943Z,51.20
2017-12-01T14:17:07.480Z,46.77
2017-12-01T14:19:35.249Z,45.40
2017-12-01T14:22:02.771Z,47.90
2017-12-01T14:24:30.297Z,47.37
2017-12-01T14:26:57.885Z,50.70
2017-12-01T14:29:25.396Z,43.27
2017-12-01T14:31:52.912Z,44.23
2017-12-01T14:34:20.682Z,48.93
2017-12-01T14:36:48.226Z,50.27
2017-12-01T14:39:15.752Z,44.33
2017-12-01T14:41:43.325Z,39.00
2017-12-01T14:44:10.841Z,35.70
2017-12-01T14:46:38.382Z,34.13
2017-12-01T14:49:06.736Z,38.43
2017-12-01T14:51:34.266Z,39.43
2017-12-01T14:54:01.894Z,43.43
2017-12-01T14:56:29.448Z,46.10
2017-12-01T14:58:57.020Z,43.17
2017-12-01T15:01:25.422Z,39.83
2017-12-01T15:03:52.977Z,74.40
2017-12-01T15:06:20.525Z,55.07
2017-12-01T15:08:48.104Z,62.67
2017-12-01T15:11:15.634Z,52.17
2017-12-01T15:13:43.148Z,53.00
2017-12-01T15:16:10.729Z,48.30
2017-12-01T15:18:38.258Z,43.00
2017-12-01T15:21:05.771Z,41.30
2017-12-01T15:23:33.320Z,45.90
2017-12-01T15:26:00.836Z,49.07
2017-12-01T15:28:28.570Z,48.80
2017-12-01T15:30:56.088Z,43.63
2017-12-01T15:33:23.599Z,47.03
2017-12-01T15:35:51.237Z,46.67
2017-12-01T15:38:18.790Z,52.90
2017-12-01T15:40:46.331Z,52.00
2017-12-01T15:43:13.889Z,53.47
2017-12-01T15:45:41.473Z,45.33
2017-12-01T15:48:09.002Z,47.40
2017-12-01T15:50:36.540Z,61.07
2017-12-01T15:53:04.120Z,47.67
2017-12-01T15:55:31.665Z,72.87
2017-12-01T15:57:59.202Z,56.57
2017-12-01T16:00:26.805Z,63.30
2017-12-01T16:02:54.383Z,61.03
2017-12-01T16:05:21.928Z,64.90
2017-12-01T16:07:49.493Z,62.67
2017-12-01T16:10:17.049Z,67.53
2017-12-01T16:12:44.648Z,67.23
2017-12-01T16:15:12.205Z,52.17
2017-12-01T16:17:39.755Z,53.20
2017-12-01T16:20:07.416Z,56.33
2017-12-01T16:22:34.931Z,71.97
2017-12-01T16:25:02.456Z,60.90
2017-12-01T16:27:30.057Z,75.97
2017-12-01T16:29:57.597Z,61.97
2017-12-01T16:32:25.162Z,65.27
2017-12-01T16:34:52.724Z,85.60
2017-12-01T16:37:20.263Z,87.20
2017-12-01T16:39:47.780Z,89.47
2017-12-01T16:42:15.348Z,93.57
2017-12-01T16:44:42.873Z,109.53
2017-12-01T16:47:10.457Z,103.13
2017-12-01T16:49:37.988Z,65.60
2017-12-01T16:52:05.536Z,69.73
2017-12-01T16:54:33.105Z,56.80
2017-12-01T16:57:00.668Z,55.03
2017-12-01T16:59:28.231Z,78.37
2017-12-01T17:01:55.800Z,79.00
2017-12-01T17:04:23.393Z,73.43
2017-12-01T17:06:50.941Z,73.77
2017-12-01T17:09:18.490Z,82.77
2017-12-01T17:11:46.052Z,71.27
2017-12-01T17:14:13.638Z,85.10
2017-12-01T17:16:41.237Z,91.10
2017-12-01T17:19:08.772Z,78.20
2017-12-01T17:21:36.325Z,82.73
2017-12-01T17:24:03.883Z,81.40
2017-12-01T17:26:31.425Z,68.90
2017-12-01T17:28:59.192Z,75.00
2017-12-01T17:31:26.740Z,69.13
2017-12-01T17:33:54.274Z,84.90
2017-12-01T17:36:21.925Z,77.33
2017-12-01T17:38:49.464Z,71.20
2017-12-01T17:41:17.018Z,69.80
2017-12-01T17:43:44.616Z,74.50
2017-12-01T17:46:12.152Z,58.83
2017-12-01T17:48:39.696Z,65.47
2017-12-01T17:51:07.252Z,76.70
2017-12-01T17:53:35.038Z,104.63
2017-12-01T17:56:02.585Z,105.73
2017-12-01T17:58:30.140Z,81.77
2017-12-01T18:00:57.737Z,90.10
2017-12-01T18:03:25.296Z,100.30
2017-12-01T18:05:52.822Z,83.77
2017-12-01T18:08:20.416Z,88.27
2017-12-01T18:10:47.960Z,103.27
2017-12-01T18:13:15.509Z,78.50
2017-12-01T18:15:43.193Z,93.20
2017-12-01T18:18:10.727Z,88.83
2017-12-01T18:20:38.275Z,100.27
2017-12-01T18:23:05.835Z,95.57
2017-12-01T18:25:33.392Z,110.07
2017-12-01T18:28:00.980Z,117.07
2017-12-01T18:30:28.521Z,98.77
2017-12-01T18:32:56.125Z,106.07
2017-12-01T18:35:23.678Z,103.77
2017-12-01T18:37:51.388Z,100.67
2017-12-01T18:40:18.934Z,97.83
2017-12-01T18:42:46.475Z,104.60
2017-12-01T18:45:14.256Z,120.47
2017-12-01T18:47:41.829Z,102.87
2017-12-01T18:50:09.390Z,109.33
2017-12-01T18:52:36.961Z,94.80
2017-12-01T18:55:04.519Z,90.20
2017-12-01T18:57:32.219Z,84.00
2017-12-01T18:59:59.768Z,90.37
2017-12-01T19:02:27.303Z,104.93
2017-12-01T19:04:54.916Z,95.57
2017-12-01T19:07:22.462Z,93.07
2017-12-01T19:09:50.021Z,88.67
2017-12-01T19:12:17.568Z,116.10
2017-12-01T19:14:45.129Z,98.23
2017-12-01T19:17:12.686Z,109.40
2017-12-01T19:19:40.276Z,113.63
2017-12-01T19:22:07.853Z,132.07
2017-12-01T19:24:35.472Z,105.50
2017-12-01T19:27:03.163Z,108.10
2017-12-01T19:29:30.728Z,84.40
2017-12-01T19:31:58.322Z,123.30
2017-12-01T19:34:25.860Z,81.13
2017-12-01T19:36:53.523Z,98.77
2017-12-01T19:39:21.066Z,111.63
2017-12-01T19:41:48.650Z,102.70
2017-12-01T19:44:16.220Z,91.93
2017-12-01T19:46:43.760Z,72.60
2017-12-01T19:49:11.345Z,87.50
2017-12-01T19:51:38.889Z,79.63
2017-12-01T19:54:06.436Z,77.47
2017-12-01T19:56:34.036Z,75.00
2017-12-01T19:59:01.590Z,68.40
2017-12-01T20:01:29.119Z,64.73
2017-12-01T20:03:56.685Z,82.07
2017-12-01T20:06:24.284Z,67.00
2017-12-01T20:08:51.836Z,73.77
2017-12-01T20:11:19.377Z,77.73
2017-12-01T20:13:46.973Z,79.93
2017-12-01T20:16:19.247Z,75.23
2017-12-01T20:18:46.851Z,67.07
2017-12-01T20:21:14.445Z,76.90
2017-12-01T20:23:42.063Z,100.07
2017-12-01T20:26:09.640Z,87.80
2017-12-01T20:28:37.338Z,78.20
2017-12-01T20:31:04.888Z,77.83
2017-12-01T20:33:32.420Z,77.00
2017-12-01T20:36:00.140Z,72.30
2017-12-01T20:38:28.070Z,79.00
2017-12-01T20:40:55.629Z,74.97
2017-12-01T20:43:24.322Z,68.47
2017-12-01T20:45:51.885Z,79.23
2017-12-01T20:48:19.560Z,67.97
2017-12-01T20:50:47.100Z,71.60
2017-12-01T20:53:14.638Z,70.63
2017-12-01T20:55:42.347Z,58.73
2017-12-01T20:58:09.871Z,56.50
2017-12-01T21:00:37.429Z,54.93
2017-12-01T21:03:05.081Z,67.13
2017-12-01T21:05:32.615Z,58.53
2017-12-01T21:08:00.161Z,72.40
2017-12-01T21:10:27.732Z,76.80
2017-12-01T21:12:55.264Z,60.97
2017-12-01T21:15:22.816Z,53.20
2017-12-01T21:17:50.349Z,76.07
2017-12-01T21:20:17.905Z,78.57
2017-12-01T21:22:45.444Z,70.37
2017-12-01T21:25:13.177Z,62.27
2017-12-01T21:27:40.725Z,60.93
2017-12-01T21:30:08.256Z,72.87
2017-12-01T21:32:35.819Z,59.70
2017-12-01T21:35:03.514Z,61.80
2017-12-01T21:37:31.088Z,72.97
2017-12-01T21:39:58.636Z,61.23
2017-12-01T21:42:26.379Z,63.53
2017-12-01T21:44:53.933Z,65.63
2017-12-01T21:47:21.485Z,68.43
2017-12-01T21:49:49.045Z,81.20
2017-12-01T21:52:16.708Z,59.60
2017-12-01T21:54:44.234Z,65.47
2017-12-01T21:57:11.757Z,73.20
2017-12-01T21:59:39.337Z,95.50
2017-12-01T22:02:06.857Z,64.10
2017-12-01T22:04:34.380Z,65.03
2017-12-01T22:07:02.063Z,62.30
2017-12-01T22:09:29.583Z,57.80
2017-12-01T22:11:57.114Z,66.60
2017-12-01T22:14:24.684Z,79.80
2017-12-01T22:16:52.219Z,68.03
2017-12-01T22:19:19.797Z,68.30
2017-12-01T22:21:47.344Z,60.37
2017-12-01T22:24:14.882Z,80.50
2017-12-01T22:26:42.469Z,67.90
2017-12-01T22:29:09.979Z,73.90
2017-12-01T22:31:37.532Z,92.40
2017-12-01T22:34:05.108Z,106.97
2017-12-01T22:36:32.661Z,96.30
2017-12-01T22:39:00.184Z,130.20
2017-12-01T22:41:27.752Z,77.27
2017-12-01T22:43:55.288Z,85.13
2017-12-01T22:46:22.981Z,122.83
2017-12-01T22:48:50.663Z,256.63
2017-12-01T22:51:18.204Z,229.03
2017-12-01T22:53:45.745Z,121.20
2017-12-01T22:56:13.476Z,173.00
2017-12-01T22:58:41.005Z,283.90
2017-12-01T23:01:08.596Z,225.13
2017-12-01T23:03:36.174Z,105.20
2017-12-01T23:06:03.695Z,178.33
2017-12-01T23:08:31.212Z,317.17
2017-12-01T23:10:58.755Z,196.40
2017-12-01T23:13:26.285Z,123.17
2017-12-01T23:15:53.886Z,238.57
2017-12-01T23:18:21.421Z,353.37
2017-12-01T23:20:48.960Z,118.50
2017-12-01T23:23:16.552Z,134.23
2017-12-01T23:25:44.089Z,104.83
2017-12-01T23:28:11.675Z,97.63
2017-12-01T23:30:39.244Z,266.07
2017-12-01T23:33:06.843Z,315.70
2017-12-01T23:35:34.381Z,615.40
2017-12-01T23:38:01.961Z,472.43
2017-12-01T23:40:29.488Z,330.53
2017-12-01T23:42:57.017Z,350.20
2017-12-01T23:45:24.612Z,295.10
2017-12-01T23:47:52.197Z,355.47
2017-12-01T23:50:19.731Z,408.87
2017-12-01T23:52:47.274Z,441.10
2017-12-01T23:55:14.829Z,392.17
2017-12-01T23:57:42.381Z,273.23
